Time;durP1;ratioP1;P1;durP2;ratioP2;P2;SDS_P1;SDS_P2;PMS_P1;PMS_P2;Temp;Humidity;BMP_temperature;BMP_pressure;BME280_temperature;BME280_humidity;BME280_pressure;Samples;Min_cycle;Max_cycle;Signal;HPM_P1;HPM_P2
2023/03/27 00:00:31;;;;;;;9.98;1.60;;;;;;;-143.48;81.28;118439.88;5073756;28;20036;-69
2023/03/27 00:02:56;;;;;;;6.90;1.40;;;;;;;-143.48;81.89;118439.88;5073790;28;20365;-68
2023/03/27 00:05:23;;;;;;;8.32;1.75;;;;;;;-143.48;80.63;118439.88;5073573;28;20039;-69
2023/03/27 00:07:54;;;;;;;4.88;0.90;;;;;;;-143.48;81.66;118439.88;5055842;28;20024;-69
2023/03/27 00:10:21;;;;;;;6.05;1.20;;;;;;;-143.48;80.05;118439.88;5073377;28;20024;-70
2023/03/27 00:12:46;;;;;;;7.13;1.20;;;;;;;-143.48;79.40;118439.88;5073511;28;20032;-69
2023/03/27 00:15:15;;;;;;;6.93;1.08;;;;;;;-143.48;79.64;118439.88;5073429;28;20376;-69
2023/03/27 00:17:43;;;;;;;8.90;1.02;;;;;;;-143.48;78.90;118439.88;5073533;28;20097;-69
2023/03/27 00:20:09;;;;;;;8.07;1.33;;;;;;;-143.48;77.18;118439.88;5073485;28;20030;-69
2023/03/27 00:22:34;;;;;;;4.20;1.00;;;;;;;-143.48;77.39;118439.88;5073452;28;20533;-69
2023/03/27 00:25:00;;;;;;;8.55;1.10;;;;;;;-143.48;77.67;118439.88;5054959;28;20020;-69
2023/03/27 00:27:25;;;;;;;5.40;0.93;;;;;;;-143.48;76.71;118439.88;5055202;28;20394;-68
2023/03/27 00:29:52;;;;;;;4.93;1.05;;;;;;;-143.48;76.57;118439.88;5073001;28;20028;-69
2023/03/27 00:32:18;;;;;;;7.72;1.17;;;;;;;-143.48;76.07;118439.88;5073352;28;20430;-69
2023/03/27 00:34:43;;;;;;;5.20;1.05;;;;;;;-143.48;77.14;118439.88;5073042;28;20021;-69
2023/03/27 00:37:09;;;;;;;5.75;1.10;;;;;;;-143.48;77.67;118439.88;5073351;28;20070;-69
2023/03/27 00:39:34;;;;;;;4.80;1.08;;;;;;;-143.48;77.71;118439.88;5073218;28;20099;-69
2023/03/27 00:41:59;;;;;;;7.28;1.20;;;;;;;-143.48;79.71;118439.88;5073189;28;20016;-69
2023/03/27 00:44:33;;;;;;;7.22;1.25;;;;;;;-143.48;79.38;118439.88;5073076;28;20043;-69
2023/03/27 00:46:58;;;;;;;;;;;;;;;-143.48;79.95;118439.88;5073600;28;20032;-69
2023/03/27 00:49:27;;;;;;;4.60;1.10;;;;;;;-143.48;80.05;118439.88;5073203;28;19909;-70
2023/03/27 00:51:53;;;;;;;8.50;1.60;;;;;;;-143.48;80.09;118439.88;5054410;28;20029;-69
2023/03/27 00:54:25;;;;;;;5.18;1.10;;;;;;;-143.48;80.88;118439.88;5072902;28;20522;-69
2023/03/27 00:56:55;;;;;;;8.88;1.02;;;;;;;-143.48;80.92;118439.88;5054942;28;20024;-69
2023/03/27 00:59:24;;;;;;;4.80;1.30;;;;;;;-143.48;81.86;118439.88;5072968;28;20023;-69
2023/03/27 01:01:50;;;;;;;12.43;1.40;;;;;;;-143.48;82.31;118439.88;5073086;28;20016;-68
2023/03/27 01:04:20;;;;;;;6.38;1.20;;;;;;;-143.48;81.99;118439.88;5072901;28;20531;-69
2023/03/27 01:06:47;;;;;;;2.35;0.77;;;;;;;-143.48;81.51;118439.88;5072814;28;20045;-70
2023/03/27 01:09:12;;;;;;;6.40;1.35;;;;;;;-143.48;82.29;118439.88;5072633;28;20020;-68
2023/03/27 01:12:07;;;;;;;10.10;1.48;;;;;;;-143.48;82.54;118439.88;5072722;28;20032;-69
2023/03/27 01:15:13;;;;;;;4.55;1.08;;;;;;;-143.48;82.64;118439.88;5072448;28;20028;-68
2023/03/27 01:17:50;;;;;;;3.17;0.90;;;;;;;-143.48;82.74;118439.88;5072705;28;20028;-68
2023/03/27 01:20:47;;;;;;;2.85;1.05;;;;;;;-143.48;82.85;118439.88;5054743;28;20074;-69
2023/03/27 01:23:54;;;;;;;9.52;1.30;;;;;;;-143.48;83.23;118439.88;5054893;28;20371;-69
2023/03/27 01:26:56;;;;;;;4.68;1.10;;;;;;;-143.48;83.51;118439.88;5059542;28;20123;-68
2023/03/27 01:30:12;;;;;;;7.60;1.20;;;;;;;-143.48;84.17;118439.88;5072749;28;20464;-69
2023/03/27 01:32:55;;;;;;;8.70;1.58;;;;;;;-143.48;85.02;118439.88;5051642;28;20395;-68
2023/03/27 01:35:58;;;;;;;13.77;1.75;;;;;;;-143.48;85.28;118439.88;5072642;28;20048;-69
2023/03/27 01:38:42;;;;;;;5.20;1.33;;;;;;;-143.48;85.35;118439.88;5076409;28;20425;-69
2023/03/27 01:41:09;;;;;;;3.13;0.90;;;;;;;-143.48;86.50;118439.88;5076440;28;20029;-69
2023/03/27 01:43:43;;;;;;;7.63;1.50;;;;;;;-143.48;87.75;118439.88;5058317;28;20498;-69
2023/03/27 01:46:17;;;;;;;3.13;0.95;;;;;;;-143.48;87.73;118439.88;5076494;28;20056;-69
2023/03/27 01:48:48;;;;;;;7.75;1.27;;;;;;;-143.48;86.43;118439.88;5058147;28;20032;-69
2023/03/27 01:51:29;;;;;;;10.88;1.73;;;;;;;-143.48;86.23;118439.88;5076104;28;20541;-69
2023/03/27 01:54:01;;;;;;;4.90;1.20;;;;;;;-143.48;87.09;118439.88;5076044;28;20041;-70
2023/03/27 01:56:36;;;;;;;5.32;1.20;;;;;;;-143.48;87.08;118439.88;5076190;28;20379;-70
2023/03/27 01:59:23;;;;;;;2.85;1.02;;;;;;;-143.48;87.21;118439.88;5076310;28;20089;-69
2023/03/27 02:02:02;;;;;;;4.13;0.95;;;;;;;-143.48;87.29;118439.88;5058009;28;20113;-69
2023/03/27 02:04:45;;;;;;;5.30;1.00;;;;;;;-143.48;87.16;118439.88;5058244;28;20059;-69
2023/03/27 02:07:17;;;;;;;5.22;0.82;;;;;;;-143.48;86.97;118439.88;5075924;28;20048;-69
2023/03/27 02:09:48;;;;;;;5.75;1.45;;;;;;;-143.48;87.18;118439.88;5075921;28;20021;-69
2023/03/27 02:12:40;;;;;;;8.73;1.48;;;;;;;-143.48;87.63;118439.88;5075699;28;20039;-69
2023/03/27 02:15:11;;;;;;;9.75;1.55;;;;;;;-143.48;87.63;118439.88;5049581;28;20502;-69
2023/03/27 02:17:43;;;;;;;4.50;1.13;;;;;;;-143.48;87.19;118439.88;5075798;28;20024;-69
2023/03/27 02:20:15;;;;;;;4.53;1.20;;;;;;;-143.48;87.84;118439.88;5075931;28;20035;-69
2023/03/27 02:22:42;;;;;;;9.32;1.10;;;;;;;-143.48;87.45;118439.88;5057683;28;20043;-68
2023/03/27 02:25:31;;;;;;;6.78;1.50;;;;;;;-143.48;86.91;118439.88;5075878;28;20048;-69
2023/03/27 02:28:38;;;;;;;4.88;1.10;;;;;;;-143.48;88.20;118439.88;5057327;28;20028;-69
2023/03/27 02:31:19;;;;;;;5.38;1.20;;;;;;;-143.48;88.54;118439.88;5023746;28;20039;-68
2023/03/27 02:33:55;;;;;;;3.80;1.17;;;;;;;-143.48;88.53;118439.88;5075471;28;20021;-69
2023/03/27 02:36:36;;;;;;;4.03;1.25;;;;;;;-143.48;88.61;118439.88;5075546;28;20021;-69
2023/03/27 02:39:07;;;;;;;5.20;1.10;;;;;;;-143.48;88.64;118439.88;5075209;28;20464;-68
2023/03/27 02:41:41;;;;;;;4.55;1.10;;;;;;;-143.48;88.67;118439.88;5075354;28;20078;-69
2023/03/27 02:44:14;;;;;;;4.95;1.23;;;;;;;-143.48;88.64;118439.88;5057435;28;20030;-70
2023/03/27 02:46:40;;;;;;;;;;;;;;;-143.48;87.68;118439.88;5057206;28;20024;-68
2023/03/27 02:49:11;;;;;;;7.32;1.40;;;;;;;-143.48;87.29;118439.88;5057218;28;20328;-69
2023/03/27 02:51:49;;;;;;;7.95;1.08;;;;;;;-143.48;87.63;118439.88;5074923;28;20074;-70
2023/03/27 02:54:21;;;;;;;8.80;1.63;;;;;;;-143.48;87.76;118439.88;5075012;28;20072;-70
2023/03/27 02:56:51;;;;;;;4.82;1.30;;;;;;;-143.48;87.65;118439.88;5075078;28;20020;-70
2023/03/27 02:59:26;;;;;;;9.15;2.95;;;;;;;-143.48;87.13;118439.88;5075042;28;20480;-69
2023/03/27 03:01:53;;;;;;;3.13;1.05;;;;;;;-143.48;87.52;118439.88;5057294;28;20025;-69
2023/03/27 03:04:24;;;;;;;4.28;1.00;;;;;;;-143.48;87.25;118439.88;5074932;28;20025;-69
2023/03/27 03:06:50;;;;;;;7.13;1.40;;;;;;;-143.48;87.19;118439.88;5074955;28;20111;-69
2023/03/27 03:09:17;;;;;;;6.90;1.45;;;;;;;-143.48;86.74;118439.88;5057040;28;20488;-69
2023/03/27 03:11:50;;;;;;;5.75;0.95;;;;;;;-143.48;87.17;118439.88;5057204;28;20082;-69
2023/03/27 03:14:19;;;;;;;4.32;0.80;;;;;;;-143.48;86.77;118439.88;5074858;28;20029;-70
2023/03/27 03:16:45;;;;;;;7.20;1.40;;;;;;;-143.48;86.76;118439.88;5075072;28;20388;-69
2023/03/27 03:19:10;;;;;;;7.55;1.20;;;;;;;-143.48;86.37;118439.88;5074604;28;20032;-69
2023/03/27 03:21:36;;;;;;;9.82;1.45;;;;;;;-143.48;86.74;118439.88;5074880;28;20020;-69
2023/03/27 03:24:01;;;;;;;5.70;1.30;;;;;;;-143.48;87.99;118439.88;5074688;28;20494;-69
2023/03/27 03:26:28;;;;;;;4.65;0.98;;;;;;;-143.48;87.16;118439.88;5074575;28;20050;-68
2023/03/27 03:28:56;;;;;;;6.93;1.20;;;;;;;-143.48;87.36;118439.88;5074289;28;20472;-69
2023/03/27 03:31:22;;;;;;;4.70;1.02;;;;;;;-143.48;86.97;118439.88;5074351;28;20028;-69
2023/03/27 03:33:50;;;;;;;8.90;1.30;;;;;;;-143.48;86.40;118439.88;5056388;28;20074;-70
2023/03/27 03:36:15;;;;;;;5.18;1.63;;;;;;;-143.48;86.81;118439.88;5056181;28;20044;-70
2023/03/27 03:38:41;;;;;;;7.18;1.35;;;;;;;-143.48;86.14;118439.88;5074256;28;20027;-69
2023/03/27 03:41:06;;;;;;;6.07;1.58;;;;;;;-143.48;86.57;118439.88;5074398;28;20531;-69
2023/03/27 03:43:32;;;;;;;3.22;0.98;;;;;;;-143.48;87.35;118439.88;5074052;28;20013;-69
2023/03/27 03:45:57;;;;;;;6.63;1.02;;;;;;;-143.48;87.49;118439.88;5074260;28;20480;-69
2023/03/27 03:48:23;;;;;;;5.57;1.48;;;;;;;-143.48;87.33;118439.88;5074020;28;20028;-69
2023/03/27 03:50:49;;;;;;;8.25;1.40;;;;;;;-143.48;87.23;118439.88;5074024;28;20416;-69
2023/03/27 03:53:17;;;;;;;5.43;1.30;;;;;;;-143.48;86.78;118439.88;5073914;28;20419;-70
2023/03/27 03:55:44;;;;;;;6.38;1.20;;;;;;;-143.48;86.32;118439.88;5055467;28;20044;-70
2023/03/27 03:58:10;;;;;;;5.82;1.02;;;;;;;-143.48;86.06;118439.88;5055382;28;20028;-70
2023/03/27 04:00:39;;;;;;;7.93;1.27;;;;;;;-143.48;85.72;118439.88;5055439;28;20025;-69
2023/03/27 04:03:10;;;;;;;8.27;1.20;;;;;;;-143.48;86.74;118439.88;5073857;28;20048;-68
2023/03/27 04:05:36;;;;;;;5.32;1.35;;;;;;;-143.48;85.80;118439.88;5055775;28;20379;-69
2023/03/27 04:08:06;;;;;;;6.50;1.35;;;;;;;-143.48;86.12;118439.88;5073724;28;20028;-69
2023/03/27 04:10:32;;;;;;;6.78;1.42;;;;;;;-143.48;86.21;118439.88;5073640;28;20464;-69
2023/03/27 04:12:58;;;;;;;6.70;1.30;;;;;;;-143.48;86.22;118439.88;5073418;28;20036;-69
2023/03/27 04:15:23;;;;;;;5.60;1.17;;;;;;;-143.48;87.74;118439.88;5073504;28;20078;-69
2023/03/27 04:17:49;;;;;;;5.75;1.30;;;;;;;-143.48;87.37;118439.88;5073511;28;20024;-68
2023/03/27 04:20:17;;;;;;;10.23;1.60;;;;;;;-143.48;87.39;118439.88;5073411;28;20432;-69
2023/03/27 04:22:45;;;;;;;4.30;0.95;;;;;;;-143.48;85.41;118439.88;5073361;28;20013;-68
2023/03/27 04:25:12;;;;;;;12.10;1.83;;;;;;;-143.48;86.09;118439.88;5073419;28;20056;-68
2023/03/27 04:27:38;;;;;;;8.27;1.48;;;;;;;-143.48;86.39;118439.88;5073352;28;20437;-69
2023/03/27 04:30:09;;;;;;;9.55;1.55;;;;;;;-143.48;86.92;118439.88;5055418;28;20021;-70
2023/03/27 04:32:35;;;;;;;4.72;1.15;;;;;;;-143.48;87.20;118439.88;5055850;28;20064;-68
2023/03/27 04:35:01;;;;;;;8.63;1.33;;;;;;;-143.48;86.32;118439.88;5073208;28;20016;-68
2023/03/27 04:37:27;;;;;;;7.57;0.98;;;;;;;-143.48;86.67;118439.88;5073413;28;20032;-68
2023/03/27 04:39:52;;;;;;;6.63;1.10;;;;;;;-143.48;86.32;118439.88;5073391;28;20364;-69
2023/03/27 04:42:21;;;;;;;5.93;1.20;;;;;;;-143.48;85.11;118439.88;5073135;28;20020;-69
2023/03/27 04:44:47;;;;;;;5.38;1.23;;;;;;;-143.48;84.24;118439.88;5055109;28;20028;-69
2023/03/27 04:47:13;;;;;;;7.97;1.17;;;;;;;-143.48;84.34;118439.88;5073202;28;20020;-69
2023/03/27 04:49:39;;;;;;;5.78;1.20;;;;;;;-143.48;84.32;118439.88;5073097;28;20024;-69
2023/03/27 04:52:08;;;;;;;6.07;1.13;;;;;;;-143.48;84.45;118439.88;5073087;28;20021;-69
2023/03/27 04:54:34;;;;;;;4.88;1.08;;;;;;;-143.48;84.66;118439.88;5072705;28;20049;-68
2023/03/27 04:57:00;;;;;;;9.10;1.20;;;;;;;-143.48;84.75;118439.88;5054964;28;20024;-68
2023/03/27 04:59:30;;;;;;;4.25;0.80;;;;;;;-143.48;84.28;118439.88;5054923;28;20081;-70
2023/03/27 05:02:00;;;;;;;3.50;1.23;;;;;;;-143.48;84.11;118439.88;5073140;28;20032;-69
2023/03/27 05:04:27;;;;;;;6.25;1.40;;;;;;;-143.48;84.19;118439.88;5054639;28;20032;-69
2023/03/27 05:06:57;;;;;;;4.63;1.10;;;;;;;-143.48;84.82;118439.88;5072984;28;20070;-69
2023/03/27 05:09:23;;;;;;;4.25;1.33;;;;;;;-143.48;84.53;118439.88;5072708;28;20103;-68
2023/03/27 05:11:49;;;;;;;3.45;0.90;;;;;;;-143.48;85.11;118439.88;5076719;28;20089;-69
2023/03/27 05:14:18;;;;;;;5.30;0.98;;;;;;;-143.48;86.26;118439.88;5059061;28;20074;-68
2023/03/27 05:16:44;;;;;;;3.50;0.75;;;;;;;-143.48;86.03;118439.88;5076884;28;20097;-69
2023/03/27 05:19:10;;;;;;;6.28;0.80;;;;;;;-143.48;86.23;118439.88;5077035;28;20096;-68
2023/03/27 05:21:36;;;;;;;8.02;1.58;;;;;;;-143.48;85.41;118439.88;5058853;28;20471;-69
2023/03/27 05:24:01;;;;;;;7.22;1.10;;;;;;;-143.48;86.43;118439.88;5076893;28;20476;-69
2023/03/27 05:26:26;;;;;;;8.18;0.95;;;;;;;-143.48;87.55;118439.88;5076665;28;20474;-69
2023/03/27 05:28:54;;;;;;;2.80;1.00;;;;;;;-143.48;87.31;118439.88;5076734;28;20111;-69
2023/03/27 05:31:21;;;;;;;6.85;1.05;;;;;;;-143.48;86.91;118439.88;5058826;28;20065;-69
2023/03/27 05:33:46;;;;;;;5.63;1.20;;;;;;;-143.48;86.40;118439.88;5076595;28;20029;-68
2023/03/27 05:36:14;;;;;;;5.72;1.30;;;;;;;-143.48;87.48;118439.88;5075167;28;20025;-69
2023/03/27 05:38:40;;;;;;;6.40;1.33;;;;;;;-143.48;87.88;118439.88;5076621;28;20028;-68
2023/03/27 05:41:06;;;;;;;5.30;1.33;;;;;;;-143.48;87.11;118439.88;5076399;28;20104;-69
2023/03/27 05:43:31;;;;;;;8.00;1.50;;;;;;;-143.48;87.29;118439.88;5076455;28;20039;-68
2023/03/27 05:45:57;;;;;;;6.00;1.10;;;;;;;-143.48;87.52;118439.88;5058357;28;20108;-68
2023/03/27 05:48:22;;;;;;;4.45;1.40;;;;;;;-143.48;87.10;118439.88;5076355;28;20039;-68
2023/03/27 05:50:47;;;;;;;7.43;1.55;;;;;;;-143.48;86.85;118439.88;5058206;28;20071;-69
2023/03/27 05:53:14;;;;;;;5.35;1.90;;;;;;;-143.48;87.21;118439.88;5076048;28;20403;-68
2023/03/27 05:55:40;;;;;;;8.18;1.63;;;;;;;-143.48;85.94;118439.88;5058248;28;20071;-68
2023/03/27 05:58:08;;;;;;;9.23;1.60;;;;;;;-143.48;87.47;118439.88;5076087;28;20471;-68
2023/03/27 06:00:35;;;;;;;12.73;2.05;;;;;;;-143.48;86.87;118439.88;5076028;28;20024;-68
2023/03/27 06:03:02;;;;;;;6.72;1.95;;;;;;;-143.48;86.22;118439.88;5076004;28;20587;-68
2023/03/27 06:05:28;;;;;;;9.55;1.90;;;;;;;-143.48;85.32;118439.88;5076096;28;20055;-70
2023/03/27 06:07:57;;;;;;;8.57;2.47;;;;;;;-143.48;84.05;118439.88;5058106;28;20024;-69
2023/03/27 06:10:22;;;;;;;11.23;2.35;;;;;;;-143.48;83.96;118439.88;5076269;28;20071;-68
2023/03/27 06:12:48;;;;;;;10.70;2.00;;;;;;;-143.48;83.47;118439.88;5075710;28;20053;-69
2023/03/27 06:15:14;;;;;;;14.23;2.35;;;;;;;-143.48;82.96;118439.88;5075758;28;20028;-68
2023/03/27 06:17:42;;;;;;;9.95;1.92;;;;;;;-143.48;81.47;118439.88;5075621;28;20055;-68
2023/03/27 06:20:11;;;;;;;9.52;2.30;;;;;;;-143.48;79.41;118439.88;5057805;28;20387;-68
2023/03/27 06:22:55;;;;;;;9.15;2.17;;;;;;;-143.48;78.40;118439.88;5074527;28;20016;-68
2023/03/27 06:25:22;;;;;;;5.80;1.88;;;;;;;-143.48;77.88;118439.88;5057769;28;20387;-68
2023/03/27 06:27:48;;;;;;;10.25;2.00;;;;;;;-143.48;77.39;118439.88;5057588;28;20028;-68
2023/03/27 06:30:19;;;;;;;11.35;2.13;;;;;;;-143.48;78.03;118439.88;5075426;28;20039;-68
2023/03/27 06:32:50;;;;;;;7.22;1.98;;;;;;;-143.48;77.73;118439.88;5057464;28;20165;-68
2023/03/27 06:35:17;;;;;;;7.32;1.75;;;;;;;-143.48;77.14;118439.88;5075312;28;20059;-69
2023/03/27 06:37:47;;;;;;;9.90;2.83;;;;;;;-143.48;77.10;118439.88;5075185;28;20024;-70
2023/03/27 06:40:23;;;;;;;7.22;1.55;;;;;;;-143.48;77.62;118439.88;5057239;28;20131;-69
2023/03/27 06:42:54;;;;;;;6.15;1.42;;;;;;;-143.48;77.32;118439.88;5074833;28;20021;-69
2023/03/27 06:45:21;;;;;;;9.27;1.60;;;;;;;-143.48;76.59;118439.88;5056743;28;20048;-69
2023/03/27 06:47:51;;;;;;;8.57;1.33;;;;;;;-143.48;77.04;118439.88;5075195;28;20028;-69
2023/03/27 06:50:17;;;;;;;17.15;2.00;;;;;;;-143.48;76.82;118439.88;5074562;28;20479;-69
2023/03/27 06:52:43;;;;;;;10.57;1.70;;;;;;;-143.48;75.81;118439.88;5074535;28;20028;-69
2023/03/27 06:55:08;;;;;;;6.50;1.13;;;;;;;-143.48;75.55;118439.88;5074674;28;20103;-69
2023/03/27 06:57:34;;;;;;;7.30;1.27;;;;;;;-143.48;74.62;118439.88;5056439;28;20027;-68
2023/03/27 06:59:59;;;;;;;6.22;1.40;;;;;;;-143.48;72.70;118439.88;5074823;28;20028;-68
2023/03/27 07:02:25;;;;;;;6.03;1.38;;;;;;;-143.48;71.45;118439.88;5057015;28;20016;-68
2023/03/27 07:04:51;;;;;;;6.00;1.25;;;;;;;-143.48;71.69;118439.88;5074895;28;20468;-67
2023/03/27 07:07:16;;;;;;;7.22;1.00;;;;;;;-143.48;71.46;118439.88;5074974;28;20021;-67
2023/03/27 07:09:42;;;;;;;2.45;0.80;;;;;;;-143.48;70.78;118439.88;5074644;28;20451;-68
2023/03/27 07:12:08;;;;;;;6.47;1.08;;;;;;;-143.48;71.26;118439.88;5074663;28;20047;-68
2023/03/27 07:14:33;;;;;;;4.68;0.90;;;;;;;-143.48;69.81;118439.88;5075055;28;20039;-68
2023/03/27 07:16:58;;;;;;;8.20;0.90;;;;;;;-143.48;69.83;118439.88;5074660;28;20077;-68
2023/03/27 07:19:24;;;;;;;5.75;1.05;;;;;;;-143.48;68.81;118439.88;5074509;28;20020;-68
2023/03/27 07:21:49;;;;;;;3.80;0.60;;;;;;;-143.48;67.95;118439.88;5074573;28;20020;-68
2023/03/27 07:24:14;;;;;;;3.75;0.90;;;;;;;-143.48;67.34;118439.88;5074531;28;20438;-69
2023/03/27 07:26:40;;;;;;;4.63;0.95;;;;;;;-143.48;56.04;118439.88;5074439;28;20028;-69
2023/03/27 07:29:09;;;;;;;6.57;1.17;;;;;;;-143.48;49.85;118439.88;5074584;28;20024;-69
2023/03/27 07:31:36;;;;;;;4.95;1.05;;;;;;;-143.48;47.90;118439.88;5074533;28;20369;-69
2023/03/27 07:34:01;;;;;;;3.72;1.00;;;;;;;-143.48;47.13;118439.88;5056310;28;20448;-69
2023/03/27 07:36:27;;;;;;;5.50;1.20;;;;;;;-143.48;47.06;118439.88;5056354;28;20119;-70
2023/03/27 07:38:53;;;;;;;5.50;1.20;;;;;;;-143.48;45.48;118439.88;5074403;28;20028;-69
2023/03/27 07:41:18;;;;;;;4.03;1.25;;;;;;;-143.48;46.36;118439.88;5056214;28;20020;-69
2023/03/27 07:43:44;;;;;;;6.43;1.40;;;;;;;-143.48;51.42;118439.88;5074474;28;20020;-69
2023/03/27 07:46:09;;;;;;;4.88;1.17;;;;;;;-143.48;53.12;118439.88;5074136;28;20032;-69
2023/03/27 07:48:34;;;;;;;6.15;1.30;;;;;;;-143.48;57.32;118439.88;5055989;28;20028;-69
2023/03/27 07:51:01;;;;;;;6.65;1.17;;;;;;;-143.48;58.41;118439.88;5073876;28;20028;-69
2023/03/27 07:53:27;;;;;;;4.85;1.30;;;;;;;-143.48;59.67;118439.88;5073643;28;20044;-69
2023/03/27 07:55:53;;;;;;;4.55;1.23;;;;;;;-143.48;59.12;118439.88;5073883;28;20055;-69
2023/03/27 07:58:20;;;;;;;7.55;1.60;;;;;;;-143.48;55.61;118439.88;5074021;28;20064;-69
2023/03/27 08:00:51;;;;;;;7.00;1.58;;;;;;;-143.48;53.65;118439.88;5073971;28;20081;-68
2023/03/27 08:03:24;;;;;;;7.18;1.60;;;;;;;-143.48;52.42;118439.88;5074171;28;20115;-70
2023/03/27 08:05:54;;;;;;;;;;;;;;;-143.48;52.18;118439.88;5055760;28;20024;-70
2023/03/27 08:08:20;;;;;;;8.20;1.27;;;;;;;-143.48;52.56;118439.88;5055159;28;19909;-69
2023/03/27 08:10:46;;;;;;;7.35;1.58;;;;;;;-143.48;54.44;118439.88;5072922;28;20036;-70
2023/03/27 08:13:11;;;;;;;8.00;1.40;;;;;;;-143.48;58.76;118439.88;5072851;28;20024;-69
2023/03/27 08:15:37;;;;;;;4.53;1.17;;;;;;;-143.48;53.44;118439.88;5072840;28;20021;-69
2023/03/27 08:18:03;;;;;;;7.13;1.38;;;;;;;-143.48;53.76;118439.88;5072980;28;20043;-69
2023/03/27 08:20:29;;;;;;;6.40;1.30;;;;;;;-143.48;49.12;118439.88;5055616;28;20115;-69
2023/03/27 08:22:54;;;;;;;5.45;1.40;;;;;;;-143.48;48.98;118439.88;5073372;28;20471;-69
2023/03/27 08:25:22;;;;;;;6.25;1.30;;;;;;;-143.48;51.82;118439.88;5073413;28;20111;-68
2023/03/27 08:27:48;;;;;;;5.15;1.20;;;;;;;-143.48;48.88;118439.88;5055327;28;20044;-69
2023/03/27 08:30:13;;;;;;;2.65;0.95;;;;;;;-143.48;44.79;118439.88;5073444;28;20062;-69
2023/03/27 08:32:40;;;;;;;6.50;1.33;;;;;;;-143.48;44.90;118439.88;5073239;28;20456;-69
2023/03/27 08:35:06;;;;;;;6.60;1.23;;;;;;;-143.48;43.08;118439.88;5073230;28;20024;-69
2023/03/27 08:37:32;;;;;;;5.38;1.60;;;;;;;-143.48;44.10;118439.88;5073163;28;20477;-69
2023/03/27 08:39:57;;;;;;;7.75;1.63;;;;;;;-143.48;41.57;118439.88;5055298;28;20024;-68
2023/03/27 08:42:33;;;;;;;5.72;1.55;;;;;;;-143.48;46.09;118439.88;5073384;28;20028;-69
2023/03/27 08:45:07;;;;;;;5.13;1.58;;;;;;;-143.48;40.20;118439.88;5054766;28;20027;-69
2023/03/27 08:47:52;;;;;;;9.07;1.90;;;;;;;-143.48;41.17;118439.88;5074574;28;20028;-69
2023/03/27 08:50:32;;;;;;;7.47;1.90;;;;;;;-143.48;39.53;118439.88;5074525;28;20016;-68
2023/03/27 08:53:03;;;;;;;7.30;1.73;;;;;;;-143.48;39.37;118439.88;5073159;28;20052;-69
2023/03/27 08:55:43;;;;;;;6.30;1.83;;;;;;;-143.48;37.86;118439.88;5073259;28;20051;-70
2023/03/27 08:58:20;;;;;;;6.93;1.75;;;;;;;-143.48;43.80;118439.88;5073365;28;20111;-70
2023/03/27 09:00:52;;;;;;;7.22;1.35;;;;;;;-143.48;42.67;118439.88;5073752;28;20383;-69
2023/03/27 09:03:29;;;;;;;6.13;1.40;;;;;;;-143.48;45.30;118439.88;5073507;28;20028;-70
2023/03/27 09:06:01;;;;;;;6.47;1.23;;;;;;;-143.48;57.87;118439.88;5073949;28;20031;-69
2023/03/27 09:09:07;;;;;;;5.13;1.00;;;;;;;-143.48;69.40;118439.88;5074135;28;20032;-69
2023/03/27 09:12:04;;;;;;;5.93;1.15;;;;;;;-143.48;75.49;118439.88;5060034;28;20044;-69
2023/03/27 09:14:41;;;;;;;6.93;1.10;;;;;;;-143.48;78.40;118439.88;5068630;28;20036;-69
2023/03/27 09:17:20;;;;;;;6.65;1.05;;;;;;;-143.48;79.79;118439.88;5056885;28;20035;-69
2023/03/27 09:19:56;;;;;;;4.53;0.77;;;;;;;-143.48;79.32;118439.88;5056795;28;20078;-69
2023/03/27 09:22:33;;;;;;;4.63;1.10;;;;;;;-143.48;79.39;118439.88;5074900;28;20047;-69
2023/03/27 09:25:07;;;;;;;3.08;0.77;;;;;;;-143.48;79.29;118439.88;5055227;28;20024;-68
2023/03/27 09:27:35;;;;;;;5.03;1.00;;;;;;;-143.48;77.98;118439.88;5073252;28;20077;-68
2023/03/27 09:30:09;;;;;;;5.45;1.13;;;;;;;-143.48;67.99;118439.88;5073438;28;20020;-68
2023/03/27 09:32:45;;;;;;;6.28;1.27;;;;;;;-143.48;67.31;118439.88;5073959;28;20038;-68
2023/03/27 09:35:14;;;;;;;5.45;0.93;;;;;;;-143.48;66.05;118439.88;5054899;28;20042;-68
2023/03/27 09:37:40;;;;;;;3.70;0.98;;;;;;;-143.48;65.92;118439.88;5073451;28;20083;-68
2023/03/27 09:40:14;;;;;;;6.78;1.10;;;;;;;-143.48;65.31;118439.88;5073827;28;20024;-68
2023/03/27 09:42:42;;;;;;;4.15;0.90;;;;;;;-143.48;65.56;118439.88;5056091;28;20021;-68
2023/03/27 09:45:11;;;;;;;6.60;1.33;;;;;;;-143.48;64.19;118439.88;5056355;28;20040;-70
2023/03/27 09:47:51;;;;;;;8.50;1.50;;;;;;;-143.48;60.84;118439.88;5056242;28;20395;-69
2023/03/27 09:50:19;;;;;;;6.38;1.10;;;;;;;-143.48;58.42;118439.88;5073795;28;20056;-68
2023/03/27 09:52:44;;;;;;;5.70;1.15;;;;;;;-143.48;57.82;118439.88;5073408;28;20052;-67
2023/03/27 09:55:29;;;;;;;7.20;1.60;;;;;;;-143.48;58.26;118439.88;5073327;28;20445;-69
2023/03/27 09:58:12;;;;;;;7.05;1.35;;;;;;;-143.48;56.02;118439.88;5075101;28;20383;-69
2023/03/27 10:00:38;;;;;;;6.45;1.20;;;;;;;-143.48;56.00;118439.88;5077223;28;20024;-69
2023/03/27 10:03:06;;;;;;;11.02;1.60;;;;;;;-143.48;55.06;118439.88;5059231;28;20035;-69
2023/03/27 10:05:34;;;;;;;7.90;1.50;;;;;;;-143.48;55.89;118439.88;5076527;28;20020;-68
2023/03/27 10:08:00;;;;;;;5.07;1.27;;;;;;;-143.48;54.85;118439.88;5076110;28;20028;-68
2023/03/27 10:10:31;;;;;;;8.43;1.33;;;;;;;-143.48;52.66;118439.88;5058042;28;20024;-70
2023/03/27 10:13:00;;;;;;;3.85;1.08;;;;;;;-143.48;53.91;118439.88;5058054;28;20041;-69
2023/03/27 10:15:30;;;;;;;7.03;1.27;;;;;;;-143.48;53.93;118439.88;5058065;28;20035;-71
2023/03/27 10:17:56;;;;;;;9.65;1.20;;;;;;;-143.48;54.68;118439.88;5057838;28;20468;-71
2023/03/27 10:20:22;;;;;;;6.50;1.58;;;;;;;-143.48;59.78;118439.88;5057727;28;20081;-71
2023/03/27 10:22:55;;;;;;;9.00;1.42;;;;;;;-143.48;60.04;118439.88;5075738;28;20016;-70
2023/03/27 10:25:34;;;;;;;6.90;1.33;;;;;;;-143.48;59.36;118439.88;5059147;28;20021;-70
2023/03/27 10:28:18;;;;;;;8.27;1.40;;;;;;;-143.48;54.71;118439.88;5058186;28;20031;-70
2023/03/27 10:30:43;;;;;;;6.47;1.23;;;;;;;-143.48;49.40;118439.88;5075427;28;20107;-69
2023/03/27 10:33:09;;;;;;;7.32;1.40;;;;;;;-143.48;48.83;118439.88;5057284;28;20108;-70
2023/03/27 10:35:44;;;;;;;7.50;1.48;;;;;;;-143.48;47.41;118439.88;5058158;28;20086;-70
2023/03/27 10:38:13;;;;;;;12.13;1.50;;;;;;;-143.48;50.08;118439.88;5057228;28;20031;-69
2023/03/27 10:40:41;;;;;;;10.60;1.88;;;;;;;-143.48;48.41;118439.88;5057523;28;20032;-70
2023/03/27 10:43:11;;;;;;;7.20;1.33;;;;;;;-143.48;47.94;118439.88;5057511;28;20055;-69
2023/03/27 10:45:49;;;;;;;4.63;0.93;;;;;;;-143.48;45.34;118439.88;5057302;28;20024;-69
2023/03/27 10:48:40;;;;;;;6.85;1.25;;;;;;;-143.48;46.20;118439.88;5057577;28;20032;-69
2023/03/27 10:51:21;;;;;;;6.43;1.33;;;;;;;-143.48;43.28;118439.88;5075199;28;20020;-69
2023/03/27 10:53:55;;;;;;;6.78;1.20;;;;;;;-143.48;47.50;118439.88;5074958;28;20518;-69
2023/03/27 10:56:37;;;;;;;6.22;1.30;;;;;;;-143.48;49.50;118439.88;5057433;28;20051;-70
2023/03/27 10:59:13;;;;;;;8.23;1.25;;;;;;;-143.48;50.19;118439.88;5049159;28;20028;-69
2023/03/27 11:01:43;;;;;;;5.85;1.30;;;;;;;-143.48;49.21;118439.88;5057231;28;20056;-70
2023/03/27 11:05:01;;;;;;;6.13;1.42;;;;;;;-143.48;47.58;118439.88;5056964;28;20025;-70
2023/03/27 11:07:40;;;;;;;7.22;1.60;;;;;;;-143.48;42.21;118439.88;5040071;28;20101;-69
2023/03/27 11:10:27;;;;;;;5.65;1.40;;;;;;;-143.48;44.06;118439.88;5059160;28;20032;-70
2023/03/27 11:13:16;;;;;;;4.78;1.35;;;;;;;-143.48;46.50;118439.88;5058233;28;20047;-70
2023/03/27 11:15:47;;;;;;;5.53;1.05;;;;;;;-143.48;53.69;118439.88;5057575;28;20036;-70
2023/03/27 11:18:19;;;;;;;6.65;1.52;;;;;;;-143.48;56.89;118439.88;5057091;28;20603;-70
2023/03/27 11:20:52;;;;;;;5.47;1.13;;;;;;;-143.48;56.85;118439.88;5057165;28;20361;-70
2023/03/27 11:23:30;;;;;;;6.93;1.50;;;;;;;-143.48;57.21;118439.88;5056551;28;20170;-71
2023/03/27 11:25:58;;;;;;;7.10;1.65;;;;;;;-143.48;51.71;118439.88;5056559;28;20020;-70